메인 페이지
METAR-TAF:

METAR-TAF

공항 :

Resolute, 누나부트, 캐나다

위도: 74-43N, 경도: 094-59W, 고도: 67m

현재 날씨관측

예보는 12분 전, 21:46시(UTC)에 발표되었습니다.
16kt
온도 1°C
습도 93%
기압 1012 hPa
시정: 1.6km
고도 300ft 상공 흐림
약한눈, 박무

METAR: CYRB 222146Z 28016KT 1SM R35/P6000FT/N -SN BR OVC003 01/00 A2989 RMK FG5SC3 SLP131

시각: 16:58 (21:58 UTC)

예보

예보는 4 시간 19분 전, 17:39시(UTC)에 발표되었습니다.
예보 대상 시간: 22일 18시부터 23일 18시까지 (UTC)
15kt
시정: 10km
고도 300ft 상공 구름 보통
고도 3000ft 상공 흐림
일시적
22일 18시부터 22일 22시까지 (UTC)
시정: 3.2km
고도 300ft 상공 흐림
약한눈, 박무
22일 2200시부터 (UTC)
15kt
시정: 10km
고도 800ft 상공 구름 보통
고도 3000ft 상공 구름 많음
일시적
22일 22시부터 23일 15시까지 (UTC)
시정: 8.0km
고도 800ft 상공 구름 많음
약한눈, 박무
23일 1500시부터 (UTC)
남남서12kt
시정: 1.6km
고도 400ft 상공 흐림
약한눈

TAF: CYRB 221739Z 2218/2318 27015KT P6SM SCT003 OVC030 TEMPO 2218/2222 2SM -SN BR OVC003 FM222200 27015KT P6SM SCT008 BKN030 TEMPO 2222/2315 5SM -SN BR BKN008 FM231500 20012KT 1SM -SN OVC004 RMK NXT FCST BY 230000Z

4,000개 이상의 공항 관측 자료 및 예보 (METAR 및 TAF 보고).

지도상에서 검색 가능한 기상관측소가 노란 점과 빨간 점으로 표시되어 있습니다.

기상관측소 명을 보려면 표시 위로 마우스를 이동하세요.

날씨 관측과 예보를 보려면 클릭하세요.

지도 변경 : 확대하려면 엑스 표시가 있는 녹색 버튼, 축소하려면 빼기 표시가 있는 녹색 버튼, 다음 페이지의 지도를 보려면 녹색 화살표를 클릭하세요.


METAR-TAF: